sensor_id;sensor_type;location;lat;lon;timestamp;temperature;humidity
18085;DHT22;9169;44.492;11.372;2024-01-25T00:01:42;9.90;50.90
18085;DHT22;9169;44.492;11.372;2024-01-25T00:04:12;9.90;50.90
18085;DHT22;9169;44.492;11.372;2024-01-25T00:06:41;9.90;50.90
18085;DHT22;9169;44.492;11.372;2024-01-25T00:09:09;9.90;50.90
18085;DHT22;9169;44.492;11.372;2024-01-25T00:11:38;9.90;50.90
18085;DHT22;9169;44.492;11.372;2024-01-25T00:14:10;9.90;50.90
18085;DHT22;9169;44.492;11.372;2024-01-25T00:16:40;9.80;50.80
18085;DHT22;9169;44.492;11.372;2024-01-25T00:19:09;9.80;50.90
18085;DHT22;9169;44.492;11.372;2024-01-25T00:21:43;9.80;50.90
18085;DHT22;9169;44.492;11.372;2024-01-25T00:24:12;9.80;50.90
18085;DHT22;9169;44.492;11.372;2024-01-25T00:26:41;9.80;50.90
18085;DHT22;9169;44.492;11.372;2024-01-25T00:29:10;9.80;51.10
18085;DHT22;9169;44.492;11.372;2024-01-25T00:31:39;9.80;51.10
18085;DHT22;9169;44.492;11.372;2024-01-25T00:34:08;9.70;51.20
18085;DHT22;9169;44.492;11.372;2024-01-25T00:36:37;9.70;51.20
18085;DHT22;9169;44.492;11.372;2024-01-25T00:39:08;9.70;51.30
18085;DHT22;9169;44.492;11.372;2024-01-25T00:41:37;9.70;51.40
18085;DHT22;9169;44.492;11.372;2024-01-25T00:44:06;9.70;51.40
18085;DHT22;9169;44.492;11.372;2024-01-25T00:46:36;9.70;51.40
18085;DHT22;9169;44.492;11.372;2024-01-25T00:49:05;9.70;51.30
18085;DHT22;9169;44.492;11.372;2024-01-25T00:51:36;9.70;51.30
18085;DHT22;9169;44.492;11.372;2024-01-25T00:54:07;9.70;51.30
18085;DHT22;9169;44.492;11.372;2024-01-25T00:56:36;9.70;51.20
18085;DHT22;9169;44.492;11.372;2024-01-25T00:59:06;9.70;51.20
18085;DHT22;9169;44.492;11.372;2024-01-25T01:01:35;9.70;51.30
18085;DHT22;9169;44.492;11.372;2024-01-25T01:04:04;9.70;51.30
18085;DHT22;9169;44.492;11.372;2024-01-25T01:06:33;9.70;51.30
18085;DHT22;9169;44.492;11.372;2024-01-25T01:09:02;9.70;51.40
18085;DHT22;9169;44.492;11.372;2024-01-25T01:11:33;9.70;51.40
18085;DHT22;9169;44.492;11.372;2024-01-25T01:14:02;9.70;51.40
18085;DHT22;9169;44.492;11.372;2024-01-25T01:16:30;9.70;51.40
18085;DHT22;9169;44.492;11.372;2024-01-25T01:19:00;9.70;51.50
18085;DHT22;9169;44.492;11.372;2024-01-25T01:21:33;9.60;51.60
18085;DHT22;9169;44.492;11.372;2024-01-25T01:24:02;9.70;51.60
18085;DHT22;9169;44.492;11.372;2024-01-25T01:26:32;9.60;51.50
18085;DHT22;9169;44.492;11.372;2024-01-25T01:29:02;9.60;51.50
18085;DHT22;9169;44.492;11.372;2024-01-25T01:31:31;9.60;51.40
18085;DHT22;9169;44.492;11.372;2024-01-25T01:33:59;9.60;51.40
18085;DHT22;9169;44.492;11.372;2024-01-25T01:36:28;9.60;51.40
18085;DHT22;9169;44.492;11.372;2024-01-25T01:38:57;9.60;51.40
18085;DHT22;9169;44.492;11.372;2024-01-25T01:41:25;9.70;51.50
18085;DHT22;9169;44.492;11.372;2024-01-25T01:43:56;9.60;51.40
18085;DHT22;9169;44.492;11.372;2024-01-25T01:46:33;9.60;51.50
18085;DHT22;9169;44.492;11.372;2024-01-25T01:49:04;9.60;51.70
18085;DHT22;9169;44.492;11.372;2024-01-25T01:51:34;9.60;51.70
18085;DHT22;9169;44.492;11.372;2024-01-25T01:54:07;9.60;51.70
18085;DHT22;9169;44.492;11.372;2024-01-25T01:56:36;9.60;51.70
18085;DHT22;9169;44.492;11.372;2024-01-25T01:59:09;9.50;51.60
18085;DHT22;9169;44.492;11.372;2024-01-25T02:01:38;9.50;51.60
18085;DHT22;9169;44.492;11.372;2024-01-25T02:04:07;9.50;51.80
18085;DHT22;9169;44.492;11.372;2024-01-25T02:06:36;9.50;51.80
18085;DHT22;9169;44.492;11.372;2024-01-25T02:09:07;9.50;51.80
18085;DHT22;9169;44.492;11.372;2024-01-25T02:11:37;9.50;51.80
18085;DHT22;9169;44.492;11.372;2024-01-25T02:14:05;9.50;52.00
18085;DHT22;9169;44.492;11.372;2024-01-25T02:16:39;9.50;51.90
18085;DHT22;9169;44.492;11.372;2024-01-25T02:19:12;9.50;51.90
18085;DHT22;9169;44.492;11.372;2024-01-25T02:21:41;9.50;51.80
18085;DHT22;9169;44.492;11.372;2024-01-25T02:24:11;9.50;51.80
18085;DHT22;9169;44.492;11.372;2024-01-25T02:26:40;9.50;51.80
18085;DHT22;9169;44.492;11.372;2024-01-25T02:29:08;9.50;51.80
18085;DHT22;9169;44.492;11.372;2024-01-25T02:31:37;9.40;51.80
18085;DHT22;9169;44.492;11.372;2024-01-25T02:34:05;9.40;51.80
18085;DHT22;9169;44.492;11.372;2024-01-25T02:36:34;9.40;51.90
18085;DHT22;9169;44.492;11.372;2024-01-25T02:39:03;9.40;51.90
18085;DHT22;9169;44.492;11.372;2024-01-25T02:41:33;9.30;51.80
18085;DHT22;9169;44.492;11.372;2024-01-25T02:44:02;9.40;51.90
18085;DHT22;9169;44.492;11.372;2024-01-25T02:46:30;9.30;51.80
18085;DHT22;9169;44.492;11.372;2024-01-25T02:48:59;9.30;51.80
18085;DHT22;9169;44.492;11.372;2024-01-25T02:51:28;9.30;51.70
18085;DHT22;9169;44.492;11.372;2024-01-25T02:53:56;9.40;51.80
18085;DHT22;9169;44.492;11.372;2024-01-25T02:56:25;9.30;51.90
18085;DHT22;9169;44.492;11.372;2024-01-25T02:58:55;9.30;51.80
18085;DHT22;9169;44.492;11.372;2024-01-25T03:01:23;9.30;51.80
18085;DHT22;9169;44.492;11.372;2024-01-25T03:03:52;9.30;51.70
18085;DHT22;9169;44.492;11.372;2024-01-25T03:06:21;9.30;51.70
18085;DHT22;9169;44.492;11.372;2024-01-25T03:08:49;9.30;51.70
18085;DHT22;9169;44.492;11.372;2024-01-25T03:11:18;9.30;51.60
18085;DHT22;9169;44.492;11.372;2024-01-25T03:13:47;9.20;51.50
18085;DHT22;9169;44.492;11.372;2024-01-25T03:16:19;9.30;51.60
18085;DHT22;9169;44.492;11.372;2024-01-25T03:18:48;9.20;51.60
18085;DHT22;9169;44.492;11.372;2024-01-25T03:21:17;9.20;51.60
18085;DHT22;9169;44.492;11.372;2024-01-25T03:23:48;9.20;51.70
18085;DHT22;9169;44.492;11.372;2024-01-25T03:26:17;9.10;51.70
18085;DHT22;9169;44.492;11.372;2024-01-25T03:28:45;9.10;51.80
18085;DHT22;9169;44.492;11.372;2024-01-25T03:31:18;9.10;51.80
18085;DHT22;9169;44.492;11.372;2024-01-25T03:33:47;9.00;51.80
18085;DHT22;9169;44.492;11.372;2024-01-25T03:36:16;9.00;51.80
18085;DHT22;9169;44.492;11.372;2024-01-25T03:38:44;9.00;51.90
18085;DHT22;9169;44.492;11.372;2024-01-25T03:41:13;9.00;51.90
18085;DHT22;9169;44.492;11.372;2024-01-25T03:43:42;9.00;52.50
18085;DHT22;9169;44.492;11.372;2024-01-25T03:46:12;8.90;52.00
18085;DHT22;9169;44.492;11.372;2024-01-25T03:48:42;8.90;51.90
18085;DHT22;9169;44.492;11.372;2024-01-25T03:51:11;8.90;51.90
18085;DHT22;9169;44.492;11.372;2024-01-25T03:53:39;8.90;52.00
18085;DHT22;9169;44.492;11.372;2024-01-25T03:56:12;8.90;52.10
18085;DHT22;9169;44.492;11.372;2024-01-25T03:58:47;8.90;52.10
18085;DHT22;9169;44.492;11.372;2024-01-25T04:01:15;8.90;52.00
18085;DHT22;9169;44.492;11.372;2024-01-25T04:03:46;8.90;52.00
18085;DHT22;9169;44.492;11.372;2024-01-25T04:06:15;8.90;52.10
18085;DHT22;9169;44.492;11.372;2024-01-25T04:08:43;8.90;52.10
18085;DHT22;9169;44.492;11.372;2024-01-25T04:11:12;8.90;52.00
18085;DHT22;9169;44.492;11.372;2024-01-25T04:13:40;8.90;52.00
18085;DHT22;9169;44.492;11.372;2024-01-25T04:16:14;8.90;51.90
18085;DHT22;9169;44.492;11.372;2024-01-25T04:18:43;8.90;51.90
18085;DHT22;9169;44.492;11.372;2024-01-25T04:21:13;9.00;52.10
18085;DHT22;9169;44.492;11.372;2024-01-25T04:23:41;8.90;52.10
18085;DHT22;9169;44.492;11.372;2024-01-25T04:26:10;8.90;52.20
18085;DHT22;9169;44.492;11.372;2024-01-25T04:28:38;8.90;52.10
18085;DHT22;9169;44.492;11.372;2024-01-25T04:31:07;8.90;52.20
18085;DHT22;9169;44.492;11.372;2024-01-25T04:33:38;8.90;52.10
18085;DHT22;9169;44.492;11.372;2024-01-25T04:36:09;8.90;52.20
18085;DHT22;9169;44.492;11.372;2024-01-25T04:38:39;8.90;52.20
18085;DHT22;9169;44.492;11.372;2024-01-25T04:41:08;8.90;52.20
18085;DHT22;9169;44.492;11.372;2024-01-25T04:43:36;8.80;52.30
18085;DHT22;9169;44.492;11.372;2024-01-25T04:46:05;8.80;52.20
18085;DHT22;9169;44.492;11.372;2024-01-25T04:48:34;8.80;52.30
18085;DHT22;9169;44.492;11.372;2024-01-25T04:51:04;8.80;52.20
18085;DHT22;9169;44.492;11.372;2024-01-25T04:53:34;8.80;52.20
18085;DHT22;9169;44.492;11.372;2024-01-25T04:56:05;8.80;52.20
18085;DHT22;9169;44.492;11.372;2024-01-25T04:58:34;8.80;52.30
18085;DHT22;9169;44.492;11.372;2024-01-25T05:01:03;8.80;52.30
18085;DHT22;9169;44.492;11.372;2024-01-25T05:03:34;8.80;52.40
18085;DHT22;9169;44.492;11.372;2024-01-25T05:06:03;8.80;52.40
18085;DHT22;9169;44.492;11.372;2024-01-25T05:08:31;8.80;52.40
18085;DHT22;9169;44.492;11.372;2024-01-25T05:11:00;8.80;52.40
18085;DHT22;9169;44.492;11.372;2024-01-25T05:13:32;8.80;52.50
18085;DHT22;9169;44.492;11.372;2024-01-25T05:16:00;8.80;52.60
18085;DHT22;9169;44.492;11.372;2024-01-25T05:18:29;8.70;53.10
18085;DHT22;9169;44.492;11.372;2024-01-25T05:20:57;8.70;52.70
18085;DHT22;9169;44.492;11.372;2024-01-25T05:23:26;8.70;52.60
18085;DHT22;9169;44.492;11.372;2024-01-25T05:25:55;8.70;52.60
18085;DHT22;9169;44.492;11.372;2024-01-25T05:28:23;8.70;52.60
18085;DHT22;9169;44.492;11.372;2024-01-25T05:30:54;8.70;52.60
18085;DHT22;9169;44.492;11.372;2024-01-25T05:33:22;8.80;52.80
18085;DHT22;9169;44.492;11.372;2024-01-25T05:35:51;8.70;52.80
18085;DHT22;9169;44.492;11.372;2024-01-25T05:38:20;8.70;52.90
18085;DHT22;9169;44.492;11.372;2024-01-25T05:40:49;8.50;52.80
18085;DHT22;9169;44.492;11.372;2024-01-25T05:43:18;8.70;53.00
18085;DHT22;9169;44.492;11.372;2024-01-25T05:45:47;8.60;52.90
18085;DHT22;9169;44.492;11.372;2024-01-25T05:48:17;8.60;52.90
18085;DHT22;9169;44.492;11.372;2024-01-25T05:50:46;8.60;52.90
18085;DHT22;9169;44.492;11.372;2024-01-25T05:53:18;8.60;52.90
18085;DHT22;9169;44.492;11.372;2024-01-25T05:55:47;8.60;53.00
18085;DHT22;9169;44.492;11.372;2024-01-25T05:58:15;8.60;53.00
18085;DHT22;9169;44.492;11.372;2024-01-25T06:00:44;8.60;53.20
18085;DHT22;9169;44.492;11.372;2024-01-25T06:03:13;8.80;53.40
18085;DHT22;9169;44.492;11.372;2024-01-25T06:05:45;8.60;53.30
18085;DHT22;9169;44.492;11.372;2024-01-25T06:08:14;8.60;53.40
18085;DHT22;9169;44.492;11.372;2024-01-25T06:10:43;8.60;53.50
18085;DHT22;9169;44.492;11.372;2024-01-25T06:13:11;8.60;53.40
18085;DHT22;9169;44.492;11.372;2024-01-25T06:15:40;8.60;53.40
18085;DHT22;9169;44.492;11.372;2024-01-25T06:18:09;8.60;53.40
18085;DHT22;9169;44.492;11.372;2024-01-25T06:20:38;8.60;53.30
18085;DHT22;9169;44.492;11.372;2024-01-25T06:23:08;8.60;53.30
18085;DHT22;9169;44.492;11.372;2024-01-25T06:25:36;8.60;53.40
18085;DHT22;9169;44.492;11.372;2024-01-25T06:28:05;8.60;53.40
18085;DHT22;9169;44.492;11.372;2024-01-25T06:30:34;8.60;53.50
18085;DHT22;9169;44.492;11.372;2024-01-25T06:33:03;8.50;53.40
18085;DHT22;9169;44.492;11.372;2024-01-25T06:35:32;8.50;53.50
18085;DHT22;9169;44.492;11.372;2024-01-25T06:38:01;8.50;53.60
18085;DHT22;9169;44.492;11.372;2024-01-25T06:40:31;8.50;53.70
18085;DHT22;9169;44.492;11.372;2024-01-25T06:42:59;8.50;53.80
18085;DHT22;9169;44.492;11.372;2024-01-25T06:45:28;8.50;53.80
18085;DHT22;9169;44.492;11.372;2024-01-25T06:47:56;8.50;53.80
18085;DHT22;9169;44.492;11.372;2024-01-25T06:50:25;8.40;53.80
18085;DHT22;9169;44.492;11.372;2024-01-25T06:52:54;8.50;53.80
18085;DHT22;9169;44.492;11.372;2024-01-25T06:55:23;8.50;53.80
18085;DHT22;9169;44.492;11.372;2024-01-25T06:57:53;8.50;53.80
18085;DHT22;9169;44.492;11.372;2024-01-25T07:00:22;8.50;53.90
18085;DHT22;9169;44.492;11.372;2024-01-25T07:02:51;8.40;53.90
18085;DHT22;9169;44.492;11.372;2024-01-25T07:05:20;8.40;54.00
18085;DHT22;9169;44.492;11.372;2024-01-25T07:07:48;8.30;53.90
18085;DHT22;9169;44.492;11.372;2024-01-25T07:10:17;8.30;54.10
18085;DHT22;9169;44.492;11.372;2024-01-25T07:12:46;8.30;54.20
18085;DHT22;9169;44.492;11.372;2024-01-25T07:15:16;8.30;54.30
18085;DHT22;9169;44.492;11.372;2024-01-25T07:17:45;8.30;54.30
18085;DHT22;9169;44.492;11.372;2024-01-25T07:20:14;8.30;54.30
18085;DHT22;9169;44.492;11.372;2024-01-25T07:22:43;8.30;54.40
18085;DHT22;9169;44.492;11.372;2024-01-25T07:25:12;8.30;54.50
18085;DHT22;9169;44.492;11.372;2024-01-25T07:27:44;8.30;54.50
18085;DHT22;9169;44.492;11.372;2024-01-25T07:30:13;8.30;54.60
18085;DHT22;9169;44.492;11.372;2024-01-25T07:32:44;8.30;54.70
18085;DHT22;9169;44.492;11.372;2024-01-25T07:35:13;8.30;54.80
18085;DHT22;9169;44.492;11.372;2024-01-25T07:37:42;8.40;54.90
18085;DHT22;9169;44.492;11.372;2024-01-25T07:40:12;8.40;54.90
18085;DHT22;9169;44.492;11.372;2024-01-25T07:42:40;8.40;55.00
18085;DHT22;9169;44.492;11.372;2024-01-25T07:45:10;8.40;55.10
18085;DHT22;9169;44.492;11.372;2024-01-25T07:47:42;8.40;55.20
18085;DHT22;9169;44.492;11.372;2024-01-25T07:50:12;8.40;55.20
18085;DHT22;9169;44.492;11.372;2024-01-25T07:52:41;8.30;55.00
18085;DHT22;9169;44.492;11.372;2024-01-25T07:55:11;8.30;54.80
18085;DHT22;9169;44.492;11.372;2024-01-25T07:57:40;8.20;54.60
18085;DHT22;9169;44.492;11.372;2024-01-25T08:00:09;8.20;54.60
18085;DHT22;9169;44.492;11.372;2024-01-25T08:02:38;8.10;55.00
18085;DHT22;9169;44.492;11.372;2024-01-25T08:05:10;8.10;54.50
18085;DHT22;9169;44.492;11.372;2024-01-25T08:07:38;8.00;54.30
18085;DHT22;9169;44.492;11.372;2024-01-25T08:10:08;8.00;54.20
18085;DHT22;9169;44.492;11.372;2024-01-25T08:12:37;8.00;54.20
18085;DHT22;9169;44.492;11.372;2024-01-25T08:15:09;8.00;54.30
18085;DHT22;9169;44.492;11.372;2024-01-25T08:17:38;8.00;54.30
18085;DHT22;9169;44.492;11.372;2024-01-25T08:20:08;8.20;54.40
18085;DHT22;9169;44.492;11.372;2024-01-25T08:22:40;8.10;54.30
18085;DHT22;9169;44.492;11.372;2024-01-25T08:25:09;8.20;54.90
18085;DHT22;9169;44.492;11.372;2024-01-25T08:27:38;8.20;54.30
18085;DHT22;9169;44.492;11.372;2024-01-25T08:30:08;8.30;54.40
18085;DHT22;9169;44.492;11.372;2024-01-25T08:32:37;8.30;54.30
18085;DHT22;9169;44.492;11.372;2024-01-25T08:35:06;8.40;54.30
18085;DHT22;9169;44.492;11.372;2024-01-25T08:37:35;8.40;54.50
18085;DHT22;9169;44.492;11.372;2024-01-25T08:40:07;8.40;54.50
18085;DHT22;9169;44.492;11.372;2024-01-25T08:42:37;8.60;55.10
18085;DHT22;9169;44.492;11.372;2024-01-25T08:45:06;8.80;57.20
18085;DHT22;9169;44.492;11.372;2024-01-25T08:47:37;9.20;59.10
18085;DHT22;9169;44.492;11.372;2024-01-25T08:50:07;9.60;60.20
18085;DHT22;9169;44.492;11.372;2024-01-25T08:52:38;10.10;60.20
18085;DHT22;9169;44.492;11.372;2024-01-25T08:55:09;10.60;60.60
18085;DHT22;9169;44.492;11.372;2024-01-25T08:57:38;11.10;61.10
18085;DHT22;9169;44.492;11.372;2024-01-25T09:00:09;11.50;59.60
18085;DHT22;9169;44.492;11.372;2024-01-25T09:02:38;11.80;58.30
18085;DHT22;9169;44.492;11.372;2024-01-25T09:05:07;12.00;56.40
18085;DHT22;9169;44.492;11.372;2024-01-25T09:07:37;12.00;55.70
18085;DHT22;9169;44.492;11.372;2024-01-25T09:10:08;12.10;55.80
18085;DHT22;9169;44.492;11.372;2024-01-25T09:12:38;12.30;56.30
18085;DHT22;9169;44.492;11.372;2024-01-25T09:15:07;12.70;57.20
18085;DHT22;9169;44.492;11.372;2024-01-25T09:17:36;13.00;56.90
18085;DHT22;9169;44.492;11.372;2024-01-25T09:20:07;13.30;56.20
18085;DHT22;9169;44.492;11.372;2024-01-25T09:22:36;13.50;55.40
18085;DHT22;9169;44.492;11.372;2024-01-25T09:25:05;13.70;54.70
18085;DHT22;9169;44.492;11.372;2024-01-25T09:27:37;13.80;53.00
18085;DHT22;9169;44.492;11.372;2024-01-25T09:30:06;13.70;51.90
18085;DHT22;9169;44.492;11.372;2024-01-25T09:32:35;13.60;50.90
18085;DHT22;9169;44.492;11.372;2024-01-25T09:35:05;13.50;50.60
18085;DHT22;9169;44.492;11.372;2024-01-25T09:37:34;13.40;50.20
18085;DHT22;9169;44.492;11.372;2024-01-25T09:40:03;13.30;50.00
18085;DHT22;9169;44.492;11.372;2024-01-25T09:42:32;13.20;49.80
18085;DHT22;9169;44.492;11.372;2024-01-25T09:45:06;13.10;49.70
18085;DHT22;9169;44.492;11.372;2024-01-25T09:47:35;13.00;49.50
18085;DHT22;9169;44.492;11.372;2024-01-25T09:50:04;12.90;49.60
18085;DHT22;9169;44.492;11.372;2024-01-25T09:52:34;12.80;49.50
18085;DHT22;9169;44.492;11.372;2024-01-25T09:55:05;12.70;49.40
18085;DHT22;9169;44.492;11.372;2024-01-25T09:57:36;12.60;49.30
18085;DHT22;9169;44.492;11.372;2024-01-25T10:00:07;12.60;49.30
18085;DHT22;9169;44.492;11.372;2024-01-25T10:02:39;12.50;49.10
18085;DHT22;9169;44.492;11.372;2024-01-25T10:05:08;12.40;49.20
18085;DHT22;9169;44.492;11.372;2024-01-25T10:07:41;12.30;49.20
18085;DHT22;9169;44.492;11.372;2024-01-25T10:10:09;12.30;49.40
18085;DHT22;9169;44.492;11.372;2024-01-25T10:12:39;12.30;49.50
18085;DHT22;9169;44.492;11.372;2024-01-25T10:15:10;12.20;49.60
18085;DHT22;9169;44.492;11.372;2024-01-25T10:17:39;12.20;49.60
18085;DHT22;9169;44.492;11.372;2024-01-25T10:20:14;12.20;49.70
18085;DHT22;9169;44.492;11.372;2024-01-25T10:22:43;12.20;49.60
18085;DHT22;9169;44.492;11.372;2024-01-25T10:25:13;12.20;49.60
18085;DHT22;9169;44.492;11.372;2024-01-25T10:27:42;12.20;49.60
18085;DHT22;9169;44.492;11.372;2024-01-25T10:30:14;12.10;49.60
18085;DHT22;9169;44.492;11.372;2024-01-25T10:32:43;12.10;49.70
18085;DHT22;9169;44.492;11.372;2024-01-25T10:35:12;12.20;49.90
18085;DHT22;9169;44.492;11.372;2024-01-25T10:37:44;12.10;50.40
18085;DHT22;9169;44.492;11.372;2024-01-25T10:40:14;12.10;49.90
18085;DHT22;9169;44.492;11.372;2024-01-25T10:42:43;12.10;49.90
18085;DHT22;9169;44.492;11.372;2024-01-25T10:45:14;12.10;50.00
18085;DHT22;9169;44.492;11.372;2024-01-25T10:47:43;12.10;50.00
18085;DHT22;9169;44.492;11.372;2024-01-25T10:50:13;12.10;50.00
18085;DHT22;9169;44.492;11.372;2024-01-25T10:52:42;12.10;50.10
18085;DHT22;9169;44.492;11.372;2024-01-25T10:55:11;12.10;50.20
18085;DHT22;9169;44.492;11.372;2024-01-25T10:57:43;12.10;50.30
18085;DHT22;9169;44.492;11.372;2024-01-25T11:00:15;12.20;50.50
18085;DHT22;9169;44.492;11.372;2024-01-25T11:02:45;12.20;50.60
18085;DHT22;9169;44.492;11.372;2024-01-25T11:05:15;12.20;50.70
18085;DHT22;9169;44.492;11.372;2024-01-25T11:07:45;12.30;50.80
18085;DHT22;9169;44.492;11.372;2024-01-25T11:10:15;12.30;50.90
18085;DHT22;9169;44.492;11.372;2024-01-25T11:12:51;12.30;50.90
18085;DHT22;9169;44.492;11.372;2024-01-25T11:15:23;12.40;51.10
18085;DHT22;9169;44.492;11.372;2024-01-25T11:17:53;12.40;51.20
18085;DHT22;9169;44.492;11.372;2024-01-25T11:20:23;12.50;51.40
18085;DHT22;9169;44.492;11.372;2024-01-25T11:22:56;12.50;51.40
18085;DHT22;9169;44.492;11.372;2024-01-25T11:25:29;12.60;51.50
18085;DHT22;9169;44.492;11.372;2024-01-25T11:28:00;12.60;51.50
18085;DHT22;9169;44.492;11.372;2024-01-25T11:30:32;12.70;51.70
18085;DHT22;9169;44.492;11.372;2024-01-25T11:33:03;12.70;51.70
18085;DHT22;9169;44.492;11.372;2024-01-25T11:35:32;12.80;51.80
18085;DHT22;9169;44.492;11.372;2024-01-25T11:38:01;12.80;51.80
18085;DHT22;9169;44.492;11.372;2024-01-25T11:40:31;12.80;51.80
18085;DHT22;9169;44.492;11.372;2024-01-25T11:43:02;12.90;51.90
18085;DHT22;9169;44.492;11.372;2024-01-25T11:45:39;12.90;51.80
18085;DHT22;9169;44.492;11.372;2024-01-25T11:48:10;12.90;51.70
18085;DHT22;9169;44.492;11.372;2024-01-25T11:50:39;12.90;51.70
18085;DHT22;9169;44.492;11.372;2024-01-25T11:53:08;13.00;51.80
18085;DHT22;9169;44.492;11.372;2024-01-25T11:55:37;13.00;51.70
18085;DHT22;9169;44.492;11.372;2024-01-25T11:58:05;13.10;51.80
18085;DHT22;9169;44.492;11.372;2024-01-25T12:00:35;13.10;51.80
18085;DHT22;9169;44.492;11.372;2024-01-25T12:03:08;13.20;51.80
18085;DHT22;9169;44.492;11.372;2024-01-25T12:05:37;13.10;51.60
18085;DHT22;9169;44.492;11.372;2024-01-25T12:08:13;13.20;51.70
18085;DHT22;9169;44.492;11.372;2024-01-25T12:10:42;13.20;51.60
18085;DHT22;9169;44.492;11.372;2024-01-25T12:13:10;13.20;51.60
18085;DHT22;9169;44.492;11.372;2024-01-25T12:15:40;13.30;51.60
18085;DHT22;9169;44.492;11.372;2024-01-25T12:18:11;13.30;51.60
18085;DHT22;9169;44.492;11.372;2024-01-25T12:20:39;13.30;51.60
18085;DHT22;9169;44.492;11.372;2024-01-25T12:23:11;13.30;51.40
18085;DHT22;9169;44.492;11.372;2024-01-25T12:25:43;13.40;51.60
18085;DHT22;9169;44.492;11.372;2024-01-25T12:28:14;13.40;51.50
18085;DHT22;9169;44.492;11.372;2024-01-25T12:30:42;13.40;51.60
18085;DHT22;9169;44.492;11.372;2024-01-25T12:33:12;13.50;51.60
18085;DHT22;9169;44.492;11.372;2024-01-25T12:35:42;13.50;51.60
18085;DHT22;9169;44.492;11.372;2024-01-25T12:38:10;13.60;51.60
18085;DHT22;9169;44.492;11.372;2024-01-25T12:40:39;13.70;51.60
18085;DHT22;9169;44.492;11.372;2024-01-25T12:43:12;13.80;51.80
18085;DHT22;9169;44.492;11.372;2024-01-25T12:45:41;13.80;51.60
18085;DHT22;9169;44.492;11.372;2024-01-25T12:48:10;13.90;51.70
18085;DHT22;9169;44.492;11.372;2024-01-25T12:50:40;14.00;51.60
18085;DHT22;9169;44.492;11.372;2024-01-25T12:53:10;14.10;51.60
18085;DHT22;9169;44.492;11.372;2024-01-25T12:55:38;14.20;51.70
18085;DHT22;9169;44.492;11.372;2024-01-25T12:58:07;14.20;51.60
18085;DHT22;9169;44.492;11.372;2024-01-25T13:00:36;14.30;51.50
18085;DHT22;9169;44.492;11.372;2024-01-25T13:03:04;14.40;51.30
18085;DHT22;9169;44.492;11.372;2024-01-25T13:05:33;14.40;51.20
18085;DHT22;9169;44.492;11.372;2024-01-25T13:08:05;14.60;51.30
18085;DHT22;9169;44.492;11.372;2024-01-25T13:10:34;14.50;51.00
18085;DHT22;9169;44.492;11.372;2024-01-25T13:13:03;14.60;51.00
18085;DHT22;9169;44.492;11.372;2024-01-25T13:15:32;14.60;50.80
18085;DHT22;9169;44.492;11.372;2024-01-25T13:18:01;14.60;50.70
18085;DHT22;9169;44.492;11.372;2024-01-25T13:20:29;14.50;50.40
18085;DHT22;9169;44.492;11.372;2024-01-25T13:22:58;14.50;50.40
18085;DHT22;9169;44.492;11.372;2024-01-25T13:25:28;14.50;50.40
18085;DHT22;9169;44.492;11.372;2024-01-25T13:27:56;14.50;50.30
18085;DHT22;9169;44.492;11.372;2024-01-25T13:30:25;14.50;50.30
18085;DHT22;9169;44.492;11.372;2024-01-25T13:33:12;14.50;50.30
18085;DHT22;9169;44.492;11.372;2024-01-25T13:35:41;14.50;50.20
18085;DHT22;9169;44.492;11.372;2024-01-25T13:38:09;14.40;50.30
18085;DHT22;9169;44.492;11.372;2024-01-25T13:40:43;14.40;50.30
18085;DHT22;9169;44.492;11.372;2024-01-25T13:43:12;14.40;50.20
18085;DHT22;9169;44.492;11.372;2024-01-25T13:45:40;14.40;50.20
18085;DHT22;9169;44.492;11.372;2024-01-25T13:48:09;14.40;50.20
18085;DHT22;9169;44.492;11.372;2024-01-25T13:50:38;14.40;50.20
18085;DHT22;9169;44.492;11.372;2024-01-25T13:53:06;14.40;50.60
18085;DHT22;9169;44.492;11.372;2024-01-25T13:55:36;14.50;51.40
18085;DHT22;9169;44.492;11.372;2024-01-25T13:58:06;14.80;53.20
18085;DHT22;9169;44.492;11.372;2024-01-25T14:00:35;15.00;52.60
18085;DHT22;9169;44.492;11.372;2024-01-25T14:03:04;15.30;52.40
18085;DHT22;9169;44.492;11.372;2024-01-25T14:05:32;15.50;52.10
18085;DHT22;9169;44.492;11.372;2024-01-25T14:08:01;15.70;52.10
18085;DHT22;9169;44.492;11.372;2024-01-25T14:10:30;15.90;52.00
18085;DHT22;9169;44.492;11.372;2024-01-25T14:13:01;16.20;51.60
18085;DHT22;9169;44.492;11.372;2024-01-25T14:15:31;16.40;50.70
18085;DHT22;9169;44.492;11.372;2024-01-25T14:18:00;16.50;49.50
18085;DHT22;9169;44.492;11.372;2024-01-25T14:20:29;16.40;48.80
18085;DHT22;9169;44.492;11.372;2024-01-25T14:22:57;16.40;48.60
18085;DHT22;9169;44.492;11.372;2024-01-25T14:25:26;16.30;48.00
18085;DHT22;9169;44.492;11.372;2024-01-25T14:27:54;16.30;47.70
18085;DHT22;9169;44.492;11.372;2024-01-25T14:30:24;16.20;47.40
18085;DHT22;9169;44.492;11.372;2024-01-25T14:32:55;16.10;47.10
18085;DHT22;9169;44.492;11.372;2024-01-25T14:35:24;15.90;46.90
18085;DHT22;9169;44.492;11.372;2024-01-25T14:37:55;15.80;47.20
18085;DHT22;9169;44.492;11.372;2024-01-25T14:40:24;15.70;46.40
18085;DHT22;9169;44.492;11.372;2024-01-25T14:42:55;15.60;46.30
18085;DHT22;9169;44.492;11.372;2024-01-25T14:45:24;15.50;46.30
18085;DHT22;9169;44.492;11.372;2024-01-25T14:47:54;15.40;46.30
18085;DHT22;9169;44.492;11.372;2024-01-25T14:50:23;15.30;46.20
18085;DHT22;9169;44.492;11.372;2024-01-25T14:52:52;15.10;46.50
18085;DHT22;9169;44.492;11.372;2024-01-25T14:55:20;15.00;45.90
18085;DHT22;9169;44.492;11.372;2024-01-25T14:57:49;14.90;45.80
18085;DHT22;9169;44.492;11.372;2024-01-25T15:00:18;14.80;45.90
18085;DHT22;9169;44.492;11.372;2024-01-25T15:02:47;14.70;46.00
18085;DHT22;9169;44.492;11.372;2024-01-25T15:05:17;14.60;46.10
18085;DHT22;9169;44.492;11.372;2024-01-25T15:07:46;14.50;46.00
18085;DHT22;9169;44.492;11.372;2024-01-25T15:10:14;14.40;46.10
18085;DHT22;9169;44.492;11.372;2024-01-25T15:12:43;14.40;46.30
18085;DHT22;9169;44.492;11.372;2024-01-25T15:15:12;14.30;46.30
18085;DHT22;9169;44.492;11.372;2024-01-25T15:17:41;14.20;46.40
18085;DHT22;9169;44.492;11.372;2024-01-25T15:20:11;14.20;46.40
18085;DHT22;9169;44.492;11.372;2024-01-25T15:22:41;14.10;46.40
18085;DHT22;9169;44.492;11.372;2024-01-25T15:25:10;14.00;46.40
18085;DHT22;9169;44.492;11.372;2024-01-25T15:27:38;14.00;46.50
18085;DHT22;9169;44.492;11.372;2024-01-25T15:30:08;13.90;46.50
18085;DHT22;9169;44.492;11.372;2024-01-25T15:32:39;13.90;46.50
18085;DHT22;9169;44.492;11.372;2024-01-25T15:35:09;13.80;46.50
18085;DHT22;9169;44.492;11.372;2024-01-25T15:37:38;13.80;46.70
18085;DHT22;9169;44.492;11.372;2024-01-25T15:40:11;13.70;46.70
18085;DHT22;9169;44.492;11.372;2024-01-25T15:42:42;13.60;46.70
18085;DHT22;9169;44.492;11.372;2024-01-25T15:45:11;13.60;46.70
18085;DHT22;9169;44.492;11.372;2024-01-25T15:47:40;13.40;46.60
18085;DHT22;9169;44.492;11.372;2024-01-25T15:50:11;13.50;46.70
18085;DHT22;9169;44.492;11.372;2024-01-25T15:52:40;13.40;46.80
18085;DHT22;9169;44.492;11.372;2024-01-25T15:55:10;13.40;46.80